KRUQ

Mid-Carolina Regional Airport

Salisbury, North Carolina, USA
METAR KRUQ 140100Z AUTO 00000KT 10SM OVC065 03/00 A3031 RMK AO2 T00300000
Observed Flight Rules
Dec-14 @ 01:00 UTC (21 minutes ago) Visual Flight Rules
Visibility Clouds
10 miles
  • Overcast at 6,500' AGL
Temperatures Readings
Current 3°C / 37°F
Dewpoint 0°C / 32°F
Humidity 81%
Altimeter 30.31" Hg
Pressure 1026 hPa
Elevation 236
METAR KRUQ 140100Z AUTO 00000KT 10SM OVC065 03/00 A3031 RMK AO2 T00300000
Observed Flight Rules
Dec-14 @ 01:00 UTC
(21 minutes ago)
VFR
Clouds
  • Overcast at 6,500' AGL
Temperature Dewpoint
3°C / 37°F 0°C / 32°F
Humidity Altimeter Pressure
81% 30.31" Hg 1026 hPa